sensor_id;sensor_type;location;lat;lon;timestamp;pressure;altitude;pressure_sealevel;temperature;humidity
64354;BME280;50681;53.334;-6.536;2022-09-09T00:04:33;100030.19;;;18.35;100.00
64354;BME280;50681;53.334;-6.536;2022-09-09T00:09:47;100032.16;;;18.19;100.00
64354;BME280;50681;53.334;-6.536;2022-09-09T00:14:53;100054.91;;;18.07;100.00
64354;BME280;50681;53.334;-6.536;2022-09-09T00:17:38;100076.44;;;28.53;100.00
64354;BME280;50681;53.334;-6.536;2022-09-09T00:20:18;100093.88;;;34.60;100.00
64354;BME280;50681;53.334;-6.536;2022-09-09T00:23:04;100056.84;;;21.27;100.00
64354;BME280;50681;53.334;-6.536;2022-09-09T00:28:22;100063.56;;;19.75;100.00
64354;BME280;50681;53.334;-6.536;2022-09-09T00:30:47;100058.44;;;19.93;100.00
64354;BME280;50681;53.334;-6.536;2022-09-09T00:33:16;100045.66;;;20.01;100.00
64354;BME280;50681;53.334;-6.536;2022-09-09T00:35:56;100050.41;;;19.61;100.00
64354;BME280;50681;53.334;-6.536;2022-09-09T00:38:38;100042.56;;;19.60;100.00
64354;BME280;50681;53.334;-6.536;2022-09-09T00:41:22;100048.78;;;19.37;100.00
64354;BME280;50681;53.334;-6.536;2022-09-09T00:50:02;100052.16;;;18.39;100.00
64354;BME280;50681;53.334;-6.536;2022-09-09T00:52:47;100049.88;;;18.25;100.00
64354;BME280;50681;53.334;-6.536;2022-09-09T00:57:53;100041.97;;;17.75;100.00
64354;BME280;50681;53.334;-6.536;2022-09-09T01:00:27;100021.56;;;17.85;100.00
64354;BME280;50681;53.334;-6.536;2022-09-09T01:06:11;100043.47;;;18.89;100.00
64354;BME280;50681;53.334;-6.536;2022-09-09T01:11:24;100022.13;;;18.59;100.00
64354;BME280;50681;53.334;-6.536;2022-09-09T01:13:58;100031.91;;;18.60;100.00
64354;BME280;50681;53.334;-6.536;2022-09-09T01:16:28;100030.44;;;18.82;100.00
64354;BME280;50681;53.334;-6.536;2022-09-09T01:18:55;100035.34;;;18.92;100.00
64354;BME280;50681;53.334;-6.536;2022-09-09T01:21:38;100031.91;;;18.95;100.00
64354;BME280;50681;53.334;-6.536;2022-09-09T01:24:38;100033.19;;;18.82;100.00
64354;BME280;50681;53.334;-6.536;2022-09-09T01:27:06;100029.16;;;18.76;100.00
64354;BME280;50681;53.334;-6.536;2022-09-09T01:29:32;100028.72;;;18.74;100.00
64354;BME280;50681;53.334;-6.536;2022-09-09T01:32:00;100023.59;;;18.72;100.00
64354;BME280;50681;53.334;-6.536;2022-09-09T01:34:29;100029.22;;;18.79;100.00
64354;BME280;50681;53.334;-6.536;2022-09-09T01:37:07;100037.19;;;19.04;100.00
64354;BME280;50681;53.334;-6.536;2022-09-09T01:39:35;100023.16;;;19.26;100.00
64354;BME280;50681;53.334;-6.536;2022-09-09T01:42:02;100015.03;;;18.74;100.00
64354;BME280;50681;53.334;-6.536;2022-09-09T01:44:30;100021.56;;;19.24;100.00
64354;BME280;50681;53.334;-6.536;2022-09-09T01:46:56;100030.28;;;18.75;100.00
64354;BME280;50681;53.334;-6.536;2022-09-09T01:49:31;100033.47;;;18.77;100.00
64354;BME280;50681;53.334;-6.536;2022-09-09T01:51:58;100039.44;;;18.83;100.00
64354;BME280;50681;53.334;-6.536;2022-09-09T01:54:26;100045.63;;;19.35;100.00
64354;BME280;50681;53.334;-6.536;2022-09-09T02:00:10;100040.59;;;19.17;100.00
64354;BME280;50681;53.334;-6.536;2022-09-09T02:08:50;100024.53;;;18.80;100.00
64354;BME280;50681;53.334;-6.536;2022-09-09T02:13:44;100045.50;;;18.56;100.00
64354;BME280;50681;53.334;-6.536;2022-09-09T02:21:42;100041.50;;;18.70;100.00
64354;BME280;50681;53.334;-6.536;2022-09-09T02:24:12;100033.88;;;18.59;100.00
64354;BME280;50681;53.334;-6.536;2022-09-09T02:26:41;100025.81;;;18.31;100.00
64354;BME280;50681;53.334;-6.536;2022-09-09T02:29:19;100025.88;;;18.50;100.00
64354;BME280;50681;53.334;-6.536;2022-09-09T02:31:47;100025.34;;;18.45;100.00
64354;BME280;50681;53.334;-6.536;2022-09-09T02:34:17;100027.63;;;18.43;100.00
64354;BME280;50681;53.334;-6.536;2022-09-09T02:36:45;100027.13;;;18.21;100.00
64354;BME280;50681;53.334;-6.536;2022-09-09T02:39:19;100008.81;;;18.05;100.00
64354;BME280;50681;53.334;-6.536;2022-09-09T02:41:54;100026.09;;;18.26;100.00
64354;BME280;50681;53.334;-6.536;2022-09-09T02:44:20;100016.41;;;18.12;100.00
64354;BME280;50681;53.334;-6.536;2022-09-09T02:49:25;100031.75;;;18.01;100.00
64354;BME280;50681;53.334;-6.536;2022-09-09T02:52:08;100029.78;;;18.01;100.00
64354;BME280;50681;53.334;-6.536;2022-09-09T02:54:38;100013.38;;;17.85;100.00
64354;BME280;50681;53.334;-6.536;2022-09-09T02:57:06;100020.38;;;17.54;100.00
64354;BME280;50681;53.334;-6.536;2022-09-09T02:59:35;100014.50;;;17.68;100.00
64354;BME280;50681;53.334;-6.536;2022-09-09T03:02:01;100021.47;;;17.82;100.00
64354;BME280;50681;53.334;-6.536;2022-09-09T03:04:26;100011.00;;;17.68;100.00
64354;BME280;50681;53.334;-6.536;2022-09-09T03:06:51;100011.09;;;17.87;100.00
64354;BME280;50681;53.334;-6.536;2022-09-09T03:09:17;100002.53;;;17.89;100.00
64354;BME280;50681;53.334;-6.536;2022-09-09T03:11:49;100004.44;;;18.01;100.00
64354;BME280;50681;53.334;-6.536;2022-09-09T03:14:15;100010.03;;;17.92;100.00
64354;BME280;50681;53.334;-6.536;2022-09-09T03:16:49;99991.78;;;18.28;100.00
64354;BME280;50681;53.334;-6.536;2022-09-09T03:19:16;100020.72;;;18.13;100.00
64354;BME280;50681;53.334;-6.536;2022-09-09T03:21:42;99998.41;;;17.79;100.00
64354;BME280;50681;53.334;-6.536;2022-09-09T03:24:08;100014.44;;;18.29;100.00
64354;BME280;50681;53.334;-6.536;2022-09-09T03:26:34;100001.22;;;17.99;100.00
64354;BME280;50681;53.334;-6.536;2022-09-09T03:29:00;100017.00;;;18.05;100.00
64354;BME280;50681;53.334;-6.536;2022-09-09T03:31:35;100006.44;;;18.04;100.00
64354;BME280;50681;53.334;-6.536;2022-09-09T03:34:01;100023.59;;;17.88;100.00
64354;BME280;50681;53.334;-6.536;2022-09-09T03:36:27;100009.66;;;17.77;100.00
64354;BME280;50681;53.334;-6.536;2022-09-09T03:38:55;99997.69;;;17.82;100.00
64354;BME280;50681;53.334;-6.536;2022-09-09T03:41:24;100020.25;;;17.95;100.00
64354;BME280;50681;53.334;-6.536;2022-09-09T03:43:50;100000.31;;;17.78;100.00
64354;BME280;50681;53.334;-6.536;2022-09-09T03:46:17;100006.84;;;17.74;100.00
64354;BME280;50681;53.334;-6.536;2022-09-09T03:48:42;100015.22;;;17.97;100.00
64354;BME280;50681;53.334;-6.536;2022-09-09T03:51:08;100000.41;;;17.66;100.00
64354;BME280;50681;53.334;-6.536;2022-09-09T03:53:35;100012.38;;;17.61;100.00
64354;BME280;50681;53.334;-6.536;2022-09-09T03:56:04;100005.50;;;17.52;100.00
64354;BME280;50681;53.334;-6.536;2022-09-09T03:58:32;100015.75;;;17.87;100.00
64354;BME280;50681;53.334;-6.536;2022-09-09T04:01:04;99994.78;;;17.91;100.00
64354;BME280;50681;53.334;-6.536;2022-09-09T04:03:31;100015.16;;;18.10;100.00
64354;BME280;50681;53.334;-6.536;2022-09-09T04:05:58;99998.75;;;17.93;100.00
64354;BME280;50681;53.334;-6.536;2022-09-09T04:08:24;100012.41;;;17.93;100.00
64354;BME280;50681;53.334;-6.536;2022-09-09T04:10:51;100005.25;;;17.89;100.00
64354;BME280;50681;53.334;-6.536;2022-09-09T04:13:17;100006.16;;;17.77;100.00
64354;BME280;50681;53.334;-6.536;2022-09-09T04:15:43;100013.31;;;18.14;100.00
64354;BME280;50681;53.334;-6.536;2022-09-09T04:18:10;100018.22;;;17.92;100.00
64354;BME280;50681;53.334;-6.536;2022-09-09T04:20:37;100006.50;;;17.75;100.00
64354;BME280;50681;53.334;-6.536;2022-09-09T04:23:10;100022.91;;;17.91;100.00
64354;BME280;50681;53.334;-6.536;2022-09-09T04:25:35;100024.81;;;17.91;100.00
64354;BME280;50681;53.334;-6.536;2022-09-09T04:28:01;100019.19;;;17.84;100.00
64354;BME280;50681;53.334;-6.536;2022-09-09T04:30:27;100019.09;;;17.80;100.00
64354;BME280;50681;53.334;-6.536;2022-09-09T04:32:53;100013.44;;;17.89;100.00
64354;BME280;50681;53.334;-6.536;2022-09-09T04:35:24;100027.66;;;17.95;100.00
64354;BME280;50681;53.334;-6.536;2022-09-09T04:37:49;100027.38;;;17.84;100.00
64354;BME280;50681;53.334;-6.536;2022-09-09T04:40:15;100019.19;;;17.84;100.00
64354;BME280;50681;53.334;-6.536;2022-09-09T04:42:40;100007.38;;;17.63;100.00
64354;BME280;50681;53.334;-6.536;2022-09-09T04:45:09;100011.06;;;17.71;100.00
64354;BME280;50681;53.334;-6.536;2022-09-09T04:47:36;100032.28;;;17.62;100.00
64354;BME280;50681;53.334;-6.536;2022-09-09T04:50:02;100030.59;;;17.57;100.00
64354;BME280;50681;53.334;-6.536;2022-09-09T04:52:28;100040.19;;;17.23;100.00
64354;BME280;50681;53.334;-6.536;2022-09-09T04:54:53;100035.38;;;17.32;100.00
64354;BME280;50681;53.334;-6.536;2022-09-09T04:57:19;100024.47;;;17.32;100.00
64354;BME280;50681;53.334;-6.536;2022-09-09T04:59:44;100028.69;;;17.29;100.00
64354;BME280;50681;53.334;-6.536;2022-09-09T05:02:11;100028.28;;;17.43;100.00
64354;BME280;50681;53.334;-6.536;2022-09-09T05:04:36;100025.47;;;18.00;100.00
64354;BME280;50681;53.334;-6.536;2022-09-09T05:07:02;100029.94;;;17.92;100.00
64354;BME280;50681;53.334;-6.536;2022-09-09T05:09:27;100014.78;;;17.79;100.00
64354;BME280;50681;53.334;-6.536;2022-09-09T05:11:53;100019.13;;;17.52;100.00
64354;BME280;50681;53.334;-6.536;2022-09-09T05:14:18;100021.72;;;17.76;100.00
64354;BME280;50681;53.334;-6.536;2022-09-09T05:16:47;100016.72;;;17.78;100.00
64354;BME280;50681;53.334;-6.536;2022-09-09T05:19:12;100012.56;;;17.69;100.00
64354;BME280;50681;53.334;-6.536;2022-09-09T05:21:38;100024.09;;;17.62;100.00
64354;BME280;50681;53.334;-6.536;2022-09-09T05:24:03;100021.22;;;17.42;100.00
64354;BME280;50681;53.334;-6.536;2022-09-09T05:26:29;100007.97;;;17.57;100.00
64354;BME280;50681;53.334;-6.536;2022-09-09T05:28:55;100008.41;;;17.59;100.00
64354;BME280;50681;53.334;-6.536;2022-09-09T05:31:21;100018.84;;;17.85;100.00
64354;BME280;50681;53.334;-6.536;2022-09-09T05:33:47;100025.47;;;18.00;100.00
64354;BME280;50681;53.334;-6.536;2022-09-09T05:36:17;100020.13;;;17.59;100.00
64354;BME280;50681;53.334;-6.536;2022-09-09T05:38:46;100028.66;;;17.58;100.00
64354;BME280;50681;53.334;-6.536;2022-09-09T05:41:12;100040.63;;;17.25;100.00
64354;BME280;50681;53.334;-6.536;2022-09-09T05:43:41;100035.19;;;17.25;100.00
64354;BME280;50681;53.334;-6.536;2022-09-09T05:46:11;100024.81;;;17.30;100.00
64354;BME280;50681;53.334;-6.536;2022-09-09T05:48:39;100023.25;;;17.45;100.00
64354;BME280;50681;53.334;-6.536;2022-09-09T05:51:07;100038.19;;;17.64;100.00
64354;BME280;50681;53.334;-6.536;2022-09-09T05:53:34;100031.44;;;17.45;100.00
64354;BME280;50681;53.334;-6.536;2022-09-09T05:56:04;100037.28;;;17.60;100.00
64354;BME280;50681;53.334;-6.536;2022-09-09T05:58:33;100042.75;;;17.60;100.00
64354;BME280;50681;53.334;-6.536;2022-09-09T06:01:06;100059.06;;;17.72;100.00
64354;BME280;50681;53.334;-6.536;2022-09-09T06:03:37;100046.63;;;18.03;100.00
64354;BME280;50681;53.334;-6.536;2022-09-09T06:06:23;100055.59;;;18.20;100.00
64354;BME280;50681;53.334;-6.536;2022-09-09T06:08:51;100055.50;;;18.00;100.00
64354;BME280;50681;53.334;-6.536;2022-09-09T06:11:19;100061.59;;;18.10;100.00
64354;BME280;50681;53.334;-6.536;2022-09-09T06:13:45;100055.91;;;17.70;100.00
64354;BME280;50681;53.334;-6.536;2022-09-09T06:16:16;100068.44;;;17.87;100.00
64354;BME280;50681;53.334;-6.536;2022-09-09T06:18:42;100066.66;;;17.95;100.00
64354;BME280;50681;53.334;-6.536;2022-09-09T06:21:27;100054.56;;;18.09;100.00
64354;BME280;50681;53.334;-6.536;2022-09-09T06:23:53;100077.16;;;17.77;100.00
64354;BME280;50681;53.334;-6.536;2022-09-09T06:26:21;100068.19;;;17.92;100.00
64354;BME280;50681;53.334;-6.536;2022-09-09T06:28:49;100071.56;;;17.73;100.00
64354;BME280;50681;53.334;-6.536;2022-09-09T06:31:17;100079.31;;;17.71;100.00
64354;BME280;50681;53.334;-6.536;2022-09-09T06:33:43;100077.25;;;17.52;100.00
64354;BME280;50681;53.334;-6.536;2022-09-09T06:36:29;100081.34;;;17.74;100.00
64354;BME280;50681;53.334;-6.536;2022-09-09T06:38:56;100081.16;;;17.67;100.00
64354;BME280;50681;53.334;-6.536;2022-09-09T06:41:24;100083.38;;;17.77;100.00
64354;BME280;50681;53.334;-6.536;2022-09-09T06:43:51;100085.22;;;17.73;100.00
64354;BME280;50681;53.334;-6.536;2022-09-09T06:46:22;100097.22;;;18.13;100.00
64354;BME280;50681;53.334;-6.536;2022-09-09T06:48:49;100108.78;;;17.78;100.00
64354;BME280;50681;53.334;-6.536;2022-09-09T06:51:19;100097.28;;;17.72;100.00
64354;BME280;50681;53.334;-6.536;2022-09-09T06:53:53;100104.03;;;17.91;100.00
64354;BME280;50681;53.334;-6.536;2022-09-09T06:56:32;100112.53;;;18.18;100.00
64354;BME280;50681;53.334;-6.536;2022-09-09T06:59:00;100095.06;;;17.90;100.00
64354;BME280;50681;53.334;-6.536;2022-09-09T07:01:39;100095.88;;;18.23;100.00
64354;BME280;50681;53.334;-6.536;2022-09-09T07:04:17;100112.03;;;18.28;100.00
64354;BME280;50681;53.334;-6.536;2022-09-09T07:06:44;100110.78;;;18.42;100.00
64354;BME280;50681;53.334;-6.536;2022-09-09T07:09:13;100114.59;;;18.37;100.00
64354;BME280;50681;53.334;-6.536;2022-09-09T07:11:48;100113.41;;;18.54;100.00
64354;BME280;50681;53.334;-6.536;2022-09-09T07:14:14;100128.69;;;18.23;100.00
64354;BME280;50681;53.334;-6.536;2022-09-09T07:16:41;100132.66;;;18.42;100.00
64354;BME280;50681;53.334;-6.536;2022-09-09T07:19:08;100130.09;;;18.33;100.00
64354;BME280;50681;53.334;-6.536;2022-09-09T07:21:33;100135.38;;;18.42;100.00
64354;BME280;50681;53.334;-6.536;2022-09-09T07:24:00;100130.19;;;18.36;100.00
64354;BME280;50681;53.334;-6.536;2022-09-09T07:26:27;100134.22;;;18.59;100.00
64354;BME280;50681;53.334;-6.536;2022-09-09T07:28:53;100135.75;;;18.40;100.00
64354;BME280;50681;53.334;-6.536;2022-09-09T07:31:25;100134.59;;;18.57;100.00
64354;BME280;50681;53.334;-6.536;2022-09-09T07:33:51;100143.84;;;18.36;100.00
64354;BME280;50681;53.334;-6.536;2022-09-09T07:36:29;100127.47;;;18.53;100.00
64354;BME280;50681;53.334;-6.536;2022-09-09T07:38:57;100137.06;;;18.62;100.00
64354;BME280;50681;53.334;-6.536;2022-09-09T07:41:40;100136.69;;;18.80;100.00
64354;BME280;50681;53.334;-6.536;2022-09-09T07:44:11;100146.19;;;18.70;100.00
64354;BME280;50681;53.334;-6.536;2022-09-09T07:46:37;100166.31;;;18.78;100.00
64354;BME280;50681;53.334;-6.536;2022-09-09T07:49:05;100161.13;;;18.73;100.00
64354;BME280;50681;53.334;-6.536;2022-09-09T07:51:33;100161.81;;;18.86;100.00
64354;BME280;50681;53.334;-6.536;2022-09-09T07:54:01;100184.75;;;19.13;100.00
64354;BME280;50681;53.334;-6.536;2022-09-09T07:56:28;100182.34;;;19.12;100.00
64354;BME280;50681;53.334;-6.536;2022-09-09T07:58:55;100170.63;;;19.11;100.00
64354;BME280;50681;53.334;-6.536;2022-09-09T08:01:33;100194.38;;;19.43;100.00
64354;BME280;50681;53.334;-6.536;2022-09-09T08:04:06;100194.59;;;19.34;100.00
64354;BME280;50681;53.334;-6.536;2022-09-09T08:06:51;100190.69;;;19.35;100.00
64354;BME280;50681;53.334;-6.536;2022-09-09T08:09:18;100194.38;;;19.43;100.00
64354;BME280;50681;53.334;-6.536;2022-09-09T08:11:56;100210.19;;;19.89;100.00
64354;BME280;50681;53.334;-6.536;2022-09-09T08:14:22;100206.78;;;19.76;100.00
64354;BME280;50681;53.334;-6.536;2022-09-09T08:16:49;100214.22;;;19.75;100.00
64354;BME280;50681;53.334;-6.536;2022-09-09T08:19:16;100196.47;;;19.49;100.00
64354;BME280;50681;53.334;-6.536;2022-09-09T08:21:43;100218.25;;;19.62;100.00
64354;BME280;50681;53.334;-6.536;2022-09-09T08:24:11;100217.41;;;19.77;100.00
64354;BME280;50681;53.334;-6.536;2022-09-09T08:26:42;100231.22;;;19.65;100.00
64354;BME280;50681;53.334;-6.536;2022-09-09T08:29:09;100241.91;;;19.70;100.00
64354;BME280;50681;53.334;-6.536;2022-09-09T08:31:50;100238.75;;;19.88;100.00
64354;BME280;50681;53.334;-6.536;2022-09-09T08:34:16;100249.19;;;19.82;100.00
64354;BME280;50681;53.334;-6.536;2022-09-09T08:36:46;100242.34;;;19.72;100.00
64354;BME280;50681;53.334;-6.536;2022-09-09T08:39:15;100251.75;;;19.91;100.00
64354;BME280;50681;53.334;-6.536;2022-09-09T08:41:48;100247.00;;;20.07;100.00
64354;BME280;50681;53.334;-6.536;2022-09-09T08:50:21;100264.88;;;20.21;100.00
64354;BME280;50681;53.334;-6.536;2022-09-09T08:54:34;100266.50;;;20.25;100.00
64354;BME280;50681;53.334;-6.536;2022-09-09T08:57:03;100262.72;;;19.91;100.00
64354;BME280;50681;53.334;-6.536;2022-09-09T08:59:32;100272.41;;;20.27;100.00
64354;BME280;50681;53.334;-6.536;2022-09-09T09:08:06;100282.91;;;19.66;100.00
64354;BME280;50681;53.334;-6.536;2022-09-09T09:10:49;100295.44;;;20.23;100.00
64354;BME280;50681;53.334;-6.536;2022-09-09T09:15:50;100294.34;;;20.08;100.00
64354;BME280;50681;53.334;-6.536;2022-09-09T09:18:17;100298.91;;;20.00;100.00
64354;BME280;50681;53.334;-6.536;2022-09-09T09:20:54;100298.91;;;20.20;100.00
64354;BME280;50681;53.334;-6.536;2022-09-09T09:23:35;100298.19;;;19.67;100.00
64354;BME280;50681;53.334;-6.536;2022-09-09T09:26:08;100313.56;;;19.72;100.00
64354;BME280;50681;53.334;-6.536;2022-09-09T09:28:35;100288.19;;;19.75;100.00
64354;BME280;50681;53.334;-6.536;2022-09-09T09:31:11;100312.91;;;19.79;100.00
64354;BME280;50681;53.334;-6.536;2022-09-09T09:36:08;100310.28;;;18.26;100.00
64354;BME280;50681;53.334;-6.536;2022-09-09T09:38:34;100319.41;;;18.90;100.00
64354;BME280;50681;53.334;-6.536;2022-09-09T09:41:00;100332.00;;;18.79;100.00
64354;BME280;50681;53.334;-6.536;2022-09-09T09:43:31;100319.44;;;19.06;100.00
64354;BME280;50681;53.334;-6.536;2022-09-09T09:45:58;100329.25;;;19.23;100.00
64354;BME280;50681;53.334;-6.536;2022-09-09T09:48:24;100323.75;;;19.07;100.00
64354;BME280;50681;53.334;-6.536;2022-09-09T09:50:51;100348.00;;;18.48;100.00
64354;BME280;50681;53.334;-6.536;2022-09-09T09:53:22;100339.34;;;18.91;100.00
64354;BME280;50681;53.334;-6.536;2022-09-09T09:55:58;100332.50;;;19.13;100.00
64354;BME280;50681;53.334;-6.536;2022-09-09T09:58:26;100342.16;;;19.91;100.00
64354;BME280;50681;53.334;-6.536;2022-09-09T10:00:53;100349.91;;;19.21;100.00
64354;BME280;50681;53.334;-6.536;2022-09-09T10:03:33;100347.16;;;19.21;100.00
64354;BME280;50681;53.334;-6.536;2022-09-09T10:06:03;100362.88;;;19.56;100.00
64354;BME280;50681;53.334;-6.536;2022-09-09T10:08:29;100363.13;;;19.67;100.00
64354;BME280;50681;53.334;-6.536;2022-09-09T10:14:53;100376.81;;;19.67;100.00
64354;BME280;50681;53.334;-6.536;2022-09-09T10:19:32;100374.09;;;20.78;100.00
64354;BME280;50681;53.334;-6.536;2022-09-09T10:22:06;100381.44;;;19.63;100.00
64354;BME280;50681;53.334;-6.536;2022-09-09T10:25:03;100359.50;;;19.63;100.00
64354;BME280;50681;53.334;-6.536;2022-09-09T10:30:25;100384.34;;;19.70;100.00
64354;BME280;50681;53.334;-6.536;2022-09-09T10:33:10;100370.81;;;19.61;100.00
64354;BME280;50681;53.334;-6.536;2022-09-09T10:38:41;100387.34;;;19.49;100.00
64354;BME280;50681;53.334;-6.536;2022-09-09T10:57:29;100410.84;;;19.66;100.00
64354;BME280;50681;53.334;-6.536;2022-09-09T11:00:02;100415.44;;;19.62;100.00
64354;BME280;50681;53.334;-6.536;2022-09-09T11:02:31;100402.19;;;19.64;100.00
64354;BME280;50681;53.334;-6.536;2022-09-09T11:05:14;100409.97;;;19.30;100.00
64354;BME280;50681;53.334;-6.536;2022-09-09T11:10:34;100420.56;;;19.47;100.00
64354;BME280;50681;53.334;-6.536;2022-09-09T11:13:14;100434.03;;;19.24;100.00
64354;BME280;50681;53.334;-6.536;2022-09-09T11:15:50;100418.59;;;19.32;100.00
64354;BME280;50681;53.334;-6.536;2022-09-09T11:18:22;100442.47;;;19.95;100.00
64354;BME280;50681;53.334;-6.536;2022-09-09T11:20:54;100426.91;;;19.67;100.00
64354;BME280;50681;53.334;-6.536;2022-09-09T11:23:29;100437.25;;;20.06;100.00
64354;BME280;50681;53.334;-6.536;2022-09-09T11:26:01;100444.38;;;20.11;100.00
64354;BME280;50681;53.334;-6.536;2022-09-09T11:31:44;100436.53;;;20.09;100.00
64354;BME280;50681;53.334;-6.536;2022-09-09T11:41:49;100430.84;;;20.18;100.00
64354;BME280;50681;53.334;-6.536;2022-09-09T11:44:27;100418.22;;;20.14;100.00
64354;BME280;50681;53.334;-6.536;2022-09-09T11:46:53;100424.00;;;20.28;100.00
64354;BME280;50681;53.334;-6.536;2022-09-09T11:49:30;100430.66;;;20.47;100.00
64354;BME280;50681;53.334;-6.536;2022-09-09T11:52:19;100429.22;;;20.53;100.00
64354;BME280;50681;53.334;-6.536;2022-09-09T11:54:49;100428.38;;;20.49;100.00
64354;BME280;50681;53.334;-6.536;2022-09-09T11:57:33;100447.13;;;20.47;100.00
64354;BME280;50681;53.334;-6.536;2022-09-09T12:00:00;100442.69;;;20.42;100.00
64354;BME280;50681;53.334;-6.536;2022-09-09T12:02:27;100428.50;;;21.15;100.00
64354;BME280;50681;53.334;-6.536;2022-09-09T12:05:07;100450.00;;;20.34;100.00
64354;BME280;50681;53.334;-6.536;2022-09-09T12:07:48;100451.16;;;20.53;100.00
64354;BME280;50681;53.334;-6.536;2022-09-09T12:10:20;100446.56;;;20.77;100.00
64354;BME280;50681;53.334;-6.536;2022-09-09T12:12:47;100432.25;;;20.67;100.00
64354;BME280;50681;53.334;-6.536;2022-09-09T12:17:43;100438.22;;;21.12;100.00
64354;BME280;50681;53.334;-6.536;2022-09-09T12:28:09;100456.44;;;21.44;100.00
64354;BME280;50681;53.334;-6.536;2022-09-09T12:33:17;100444.81;;;21.54;100.00
64354;BME280;50681;53.334;-6.536;2022-09-09T12:35:46;100439.22;;;21.47;100.00
64354;BME280;50681;53.334;-6.536;2022-09-09T12:38:25;100460.06;;;21.71;100.00
64354;BME280;50681;53.334;-6.536;2022-09-09T12:40:55;100444.66;;;21.67;100.00
64354;BME280;50681;53.334;-6.536;2022-09-09T12:43:22;100473.09;;;22.01;100.00
64354;BME280;50681;53.334;-6.536;2022-09-09T12:45:50;100446.44;;;21.79;100.00
64354;BME280;50681;53.334;-6.536;2022-09-09T12:48:25;100443.19;;;21.73;100.00
64354;BME280;50681;53.334;-6.536;2022-09-09T12:50:53;100449.75;;;21.65;100.00
64354;BME280;50681;53.334;-6.536;2022-09-09T12:53:29;100460.75;;;21.92;100.00
64354;BME280;50681;53.334;-6.536;2022-09-09T12:56:01;100447.53;;;21.74;100.00
64354;BME280;50681;53.334;-6.536;2022-09-09T12:58:30;100458.94;;;21.76;100.00
64354;BME280;50681;53.334;-6.536;2022-09-09T13:01:00;100456.75;;;21.85;100.00
64354;BME280;50681;53.334;-6.536;2022-09-09T13:03:29;100461.94;;;22.17;100.00
64354;BME280;50681;53.334;-6.536;2022-09-09T13:05:58;100473.72;;;22.18;100.00
64354;BME280;50681;53.334;-6.536;2022-09-09T13:08:25;100460.25;;;22.09;100.00
64354;BME280;50681;53.334;-6.536;2022-09-09T13:11:01;100466.94;;;21.85;100.00
64354;BME280;50681;53.334;-6.536;2022-09-09T13:13:52;100474.47;;;21.65;100.00
64354;BME280;50681;53.334;-6.536;2022-09-09T13:16:30;100473.16;;;21.58;100.00
64354;BME280;50681;53.334;-6.536;2022-09-09T13:18:57;100480.34;;;21.63;100.00
64354;BME280;50681;53.334;-6.536;2022-09-09T13:21:34;100494.91;;;21.91;100.00
64354;BME280;50681;53.334;-6.536;2022-09-09T13:24:00;100484.41;;;21.96;100.00
64354;BME280;50681;53.334;-6.536;2022-09-09T13:26:29;100477.25;;;21.92;100.00
64354;BME280;50681;53.334;-6.536;2022-09-09T13:29:08;100495.88;;;22.02;100.00
64354;BME280;50681;53.334;-6.536;2022-09-09T13:31:36;100497.22;;;21.88;100.00
64354;BME280;50681;53.334;-6.536;2022-09-09T13:34:30;100498.69;;;21.59;100.00
64354;BME280;50681;53.334;-6.536;2022-09-09T13:37:02;100493.53;;;21.34;100.00
64354;BME280;50681;53.334;-6.536;2022-09-09T13:39:32;100504.09;;;21.32;100.00
64354;BME280;50681;53.334;-6.536;2022-09-09T13:41:58;100500.31;;;21.17;100.00
64354;BME280;50681;53.334;-6.536;2022-09-09T13:44:30;100473.28;;;21.19;100.00
64354;BME280;50681;53.334;-6.536;2022-09-09T13:47:18;100508.00;;;21.54;100.00
64354;BME280;50681;53.334;-6.536;2022-09-09T13:49:45;100515.25;;;21.63;100.00
64354;BME280;50681;53.334;-6.536;2022-09-09T13:52:18;100500.56;;;21.75;100.00
64354;BME280;50681;53.334;-6.536;2022-09-09T13:54:51;100491.41;;;21.94;100.00
64354;BME280;50681;53.334;-6.536;2022-09-09T13:57:22;100520.81;;;21.90;100.00
64354;BME280;50681;53.334;-6.536;2022-09-09T13:59:49;100519.59;;;21.64;100.00
64354;BME280;50681;53.334;-6.536;2022-09-09T14:02:15;100530.28;;;21.06;100.00
64354;BME280;50681;53.334;-6.536;2022-09-09T14:04:42;100512.94;;;20.82;100.00
64354;BME280;50681;53.334;-6.536;2022-09-09T14:07:15;100517.66;;;20.14;100.00
64354;BME280;50681;53.334;-6.536;2022-09-09T14:09:41;100508.84;;;20.05;100.00
64354;BME280;50681;53.334;-6.536;2022-09-09T14:12:14;100510.94;;;19.79;100.00
64354;BME280;50681;53.334;-6.536;2022-09-09T14:14:40;100527.13;;;19.85;100.00
64354;BME280;50681;53.334;-6.536;2022-09-09T14:17:10;100529.50;;;19.86;100.00
64354;BME280;50681;53.334;-6.536;2022-09-09T14:19:36;100542.47;;;20.53;100.00
64354;BME280;50681;53.334;-6.536;2022-09-09T14:22:02;100533.69;;;20.28;100.00
64354;BME280;50681;53.334;-6.536;2022-09-09T14:24:28;100551.81;;;20.68;100.00
64354;BME280;50681;53.334;-6.536;2022-09-09T14:26:54;100549.56;;;21.10;100.00
64354;BME280;50681;53.334;-6.536;2022-09-09T14:29:19;100554.38;;;22.26;100.00
64354;BME280;50681;53.334;-6.536;2022-09-09T14:31:45;100553.41;;;21.68;100.00
64354;BME280;50681;53.334;-6.536;2022-09-09T14:34:11;100538.03;;;21.43;100.00
64354;BME280;50681;53.334;-6.536;2022-09-09T14:36:37;100543.22;;;21.06;100.00
64354;BME280;50681;53.334;-6.536;2022-09-09T14:39:03;100553.25;;;20.62;100.00
64354;BME280;50681;53.334;-6.536;2022-09-09T14:41:30;100578.25;;;20.25;100.00
64354;BME280;50681;53.334;-6.536;2022-09-09T14:43:55;100579.06;;;19.65;100.00
64354;BME280;50681;53.334;-6.536;2022-09-09T14:46:21;100593.06;;;19.47;100.00